Map

Track Data

SID SEASON NUMBER BASIN SUBBASIN NAME ISO_TIME NATURE LAT LON WMO_WIND WMO_PRES WMO_AGENCY TRACK_TYPE DIST2LAND LANDFALL IFLAG USA_AGENCY USA_ATCF_ID USA_LAT USA_LON USA_RECORD USA_STATUS USA_WIND USA_PRES USA_SSHS USA_R34_NE USA_R34_SE USA_R34_SW USA_R34_NW USA_R50_NE USA_R50_SE USA_R50_SW USA_R50_NW USA_R64_NE USA_R64_SE USA_R64_SW USA_R64_NW USA_POCI USA_ROCI USA_RMW USA_EYE TOKYO_LAT TOKYO_LON TOKYO_GRADE TOKYO_WIND TOKYO_PRES TOKYO_R50_DIR TOKYO_R50_LONG TOKYO_R50_SHORT TOKYO_R30_DIR TOKYO_R30_LONG TOKYO_R30_SHORT TOKYO_LAND CMA_LAT CMA_LON CMA_CAT CMA_WIND CMA_PRES HKO_LAT HKO_LON HKO_CAT HKO_WIND HKO_PRES NEWDELHI_LAT NEWDELHI_LON NEWDELHI_GRADE NEWDELHI_WIND NEWDELHI_PRES NEWDELHI_CI NEWDELHI_DP NEWDELHI_POCI REUNION_LAT REUNION_LON REUNION_TYPE REUNION_WIND REUNION_PRES REUNION_TNUM REUNION_CI REUNION_RMW REUNION_R34_NE REUNION_R34_SE REUNION_R34_SW REUNION_R34_NW REUNION_R50_NE REUNION_R50_SE REUNION_R50_SW REUNION_R50_NW REUNION_R64_NE REUNION_R64_SE REUNION_R64_SW REUNION_R64_NW BOM_LAT BOM_LON BOM_TYPE BOM_WIND BOM_PRES BOM_TNUM BOM_CI BOM_RMW BOM_R34_NE BOM_R34_SE BOM_R34_SW BOM_R34_NW BOM_R50_NE BOM_R50_SE BOM_R50_SW BOM_R50_NW BOM_R64_NE BOM_R64_SE BOM_R64_SW BOM_R64_NW BOM_ROCI BOM_POCI BOM_EYE BOM_POS_METHOD BOM_PRES_METHOD NADI_LAT NADI_LON NADI_CAT NADI_WIND NADI_PRES WELLINGTON_LAT WELLINGTON_LON WELLINGTON_WIND WELLINGTON_PRES DS824_LAT DS824_LON DS824_STAGE DS824_WIND DS824_PRES TD9636_LAT TD9636_LON TD9636_STAGE TD9636_WIND TD9636_PRES TD9635_LAT TD9635_LON TD9635_WIND TD9635_PRES TD9635_ROCI NEUMANN_LAT NEUMANN_LON NEUMANN_CLASS NEUMANN_WIND NEUMANN_PRES MLC_LAT MLC_LON MLC_CLASS MLC_WIND MLC_PRES USA_GUST BOM_GUST BOM_GUST_PER REUNION_GUST REUNION_GUST_PER USA_SEAHGT USA_SEARAD_NE USA_SEARAD_SE USA_SEARAD_SW USA_SEARAD_NW STORM_SPEED STORM_DIR
1982309N11064 1982 98 NI AS NOT_NAMED 1982-11-04 14:00:00 NR 11.1000 63.9000 main 1037 1035 __________O___ -1 11.1000 63.9000 0 20 5 321
1982309N11064 1982 98 NI AS NOT_NAMED 1982-11-04 15:00:00 NR 11.1611 63.8425 main 1024 1011 __________P___ -1 11.1611 63.8425 0 20 5 315
1982309N11064 1982 98 NI AS NOT_NAMED 1982-11-04 18:00:00 NR 11.3325 63.6601 main 1011 987 O_________P___ jtwc_io IO051982 11.3000 63.6000 25 -1 11.3433 63.6801 0 23 5 318
1982309N11064 1982 98 NI AS NOT_NAMED 1982-11-04 21:00:00 NR 11.5175 63.5203 main 987 984 P_________P___ IO051982 11.5100 63.4526 27 -1 11.5212 63.5541 0 25 4 331
1982309N11064 1982 98 NI AS NOT_NAMED 1982-11-05 00:00:00 NR 11.6953 63.4526 main 984 982 O_________P___ jtwc_io IO051982 11.7000 63.4000 30 -1 11.6918 63.4921 0 28 4 354
1982309N11064 1982 98 NI AS NOT_NAMED 1982-11-05 02:00:00 NR 11.8040 63.4775 main 982 982 P_________O___ IO051982 11.8079 63.4550 30 -1 11.8000 63.5000 1 30 3 18
1982309N11064 1982 98 NI AS NOT_NAMED 1982-11-05 03:00:00 NR 11.8548 63.5132 main 981 981 P_________P___ IO051982 11.8575 63.5050 30 -1 11.8521 63.5214 1 30 4 44
1982309N11064 1982 98 NI AS NOT_NAMED 1982-11-05 06:00:00 NR 12.0013 63.6731 main 1002 997 O_________P___ jtwc_io IO051982 12.0000 63.7000 30 -1 12.0025 63.6463 1 30 5 50
1982309N11064 1982 98 NI AS NOT_NAMED 1982-11-05 09:00:00 NR 12.1494 63.8677 main 1011 1001 P_________P___ IO051982 12.1500 63.9000 30 -1 12.1487 63.8354 1 30 5 53
1982309N11064 1982 98 NI AS NOT_NAMED 1982-11-05 12:00:00 NR 12.2985 64.0772 main 1008 1007 O_________P___ jtwc_io IO051982 12.3000 64.1000 30 -1 12.2970 64.0544 1 30 5 53
1982309N11064 1982 98 NI AS NOT_NAMED 1982-11-05 14:00:00 NR 12.3973 64.2013 main 1007 1007 P_________O___ IO051982 12.3945 64.2025 30 -1 12.4000 64.2000 1 30 5 49
1982309N11064 1982 98 NI AS NOT_NAMED 1982-11-05 15:00:00 NR 12.4481 64.2536 main 1014 1005 P_________P___ IO051982 12.4425 64.2501 30 -1 12.4537 64.2571 1 30 4 45
1982309N11064 1982 98 NI AS NOT_NAMED 1982-11-05 18:00:00 NR 12.6100 64.4140 main 1005 1005 O_________P___ jtwc_io IO051982 12.6000 64.4000 30 -1 12.6199 64.4280 1 31 5 44
1982309N11064 1982 98 NI AS NOT_NAMED 1982-11-05 21:00:00 NR 12.7968 64.6002 main 1005 994 P_________P___ IO051982 12.8000 64.6000 32 -1 12.7937 64.6005 1 32 5 44
1982309N11064 1982 98 NI AS NOT_NAMED 1982-11-06 00:00:00 NR 12.9875 64.7889 main 994 980 O_________P___ jtwc_io IO051982 13.0000 64.8000 35 0 12.9750 64.7777 1 34 5 44
1982309N11064 1982 98 NI AS NOT_NAMED 1982-11-06 02:00:00 NR 13.0985 64.8986 main 980 980 P_________O___ IO051982 13.0970 64.8971 36 0 13.1000 64.9000 2 35 5 45
1982309N11064 1982 98 NI AS NOT_NAMED 1982-11-06 03:00:00 NR 13.1492 64.9512 main 970 951 P_________P___ IO051982 13.1424 64.9426 37 0 13.1559 64.9597 2 35 5 45
1982309N11064 1982 98 NI AS NOT_NAMED 1982-11-06 06:00:00 NR 13.3130 65.1214 main 951 922 O_________P___ jtwc_io IO051982 13.3000 65.1000 40 0 13.3261 65.1429 2 38 5 45
1982309N11064 1982 98 NI AS NOT_NAMED 1982-11-06 09:00:00 NR 13.5236 65.3396 main 922 880 P_________P___ IO051982 13.5350 65.3425 42 0 13.5121 65.3367 2 40 6 44
1982309N11064 1982 98 NI AS NOT_NAMED 1982-11-06 12:00:00 NR 13.7648 65.5736 main 880 866 O_________P___ jtwc_io IO051982 13.8000 65.6000 45 0 13.7297 65.5472 2 43 7 42
1982309N11064 1982 98 NI AS NOT_NAMED 1982-11-06 14:00:00 NR 13.9279 65.7153 main 866 852 P_________O___ IO051982 13.9557 65.7305 46 0 13.9000 65.7000 2 45 6 40
1982309N11064 1982 98 NI AS NOT_NAMED 1982-11-06 15:00:00 NR 14.0120 65.7847 main 852 820 P_________P___ IO051982 14.0349 65.7927 47 0 13.9891 65.7768 2 45 7 38
1982309N11064 1982 98 NI AS NOT_NAMED 1982-11-06 18:00:00 NR 14.2933 66.0109 main 820 779 O_________P___ jtwc_io IO051982 14.3000 66.0000 50 0 14.2865 66.0218 2 48 8 38
1982309N11064 1982 98 NI AS NOT_NAMED 1982-11-06 21:00:00 NR 14.6245 66.2842 main 779 736 P_________P___ IO051982 14.6200 66.2776 52 0 14.6290 66.2907 2 50 9 38
1982309N11064 1982 98 NI AS NOT_NAMED 1982-11-07 00:00:00 NR 15.0083 66.5932 main 736 708 O_________P___ jtwc_io IO051982 15.0000 66.6000 55 0 15.0165 66.5865 2 53 10 38
1982309N11064 1982 98 NI AS NOT_NAMED 1982-11-07 02:00:00 NR 15.2867 66.8128 main 708 695 P_________O___ IO051982 15.2733 66.8255 56 0 15.3000 66.8000 4 55 11 37
1982309N11064 1982 98 NI AS NOT_NAMED 1982-11-07 03:00:00 NR 15.4327 66.9271 main 695 644 P_________P___ IO051982 15.4200 66.9426 57 0 15.4453 66.9116 4 55 12 36
1982309N11064 1982 98 NI AS NOT_NAMED 1982-11-07 06:00:00 NR 15.9070 67.2842 main 644 587 O_________P___ jtwc_io IO051982 15.9000 67.3000 60 0 15.9139 67.2684 4 58 12 35
1982309N11064 1982 98 NI AS NOT_NAMED 1982-11-07 09:00:00 NR 16.4307 67.6457 main 587 517 P_________P___ IO051982 16.4424 67.6426 62 0 16.4191 67.6487 4 60 13 33
1982309N11064 1982 98 NI AS NOT_NAMED 1982-11-07 12:00:00 NR 16.9726 68.0199 main 508 462 O_________P___ jtwc_io IO051982 17.0000 68.0000 65 1 16.9452 68.0397 4 63 13 34
1982309N11064 1982 98 NI AS NOT_NAMED 1982-11-07 14:00:00 NR 17.3206 68.2822 main 462 437 P_________O___ IO051982 17.3412 68.2643 66 1 17.3000 68.3000 4 65 13 36
1982309N11064 1982 98 NI AS NOT_NAMED 1982-11-07 15:00:00 NR 17.4889 68.4115 main 437 367 P_________P___ IO051982 17.5075 68.4001 67 1 17.4703 68.4229 4 66 13 36
1982309N11064 1982 98 NI AS NOT_NAMED 1982-11-07 18:00:00 NR 17.9931 68.7951 main 367 303 O_________P___ jtwc_io IO051982 18.0000 68.8000 70 1 17.9863 68.7902 4 69 12 35
1982309N11064 1982 98 NI AS NOT_NAMED 1982-11-07 21:00:00 NR 18.5012 69.1554 main 297 233 P_________P___ IO051982 18.4923 69.1504 75 1 18.5100 69.1603 4 73 12 34
1982309N11064 1982 98 NI AS NOT_NAMED 1982-11-08 00:00:00 NR 19.0207 69.5197 main 233 188 O_________P___ jtwc_io IO051982 19.0000 69.5000 80 1 19.0414 69.5394 4 77 13 34
1982309N11064 1982 98 NI AS NOT_NAMED 1982-11-08 02:00:00 NR 19.3793 69.7768 main 179 163 P_________O___ IO051982 19.3587 69.7535 81 1 19.4000 69.8000 4 80 13 34
1982309N11064 1982 98 NI AS NOT_NAMED 1982-11-08 03:00:00 NR 19.5691 69.9058 main 154 84 P_________P___ IO051982 19.5424 69.8852 82 1 19.5957 69.9264 4 80 14 33
1982309N11064 1982 98 NI AS NOT_NAMED 1982-11-08 06:00:00 NR 20.1476 70.3064 main 84 10 O_________P___ jtwc_io IO051982 20.1000 70.3000 85 2 20.1951 70.3127 4 80 14 34
1982309N11064 1982 98 NI AS NOT_NAMED 1982-11-08 09:00:00 NR 20.7220 70.7288 main 10 0 P_________P___ IO051982 20.6649 70.7352 82 1 20.7791 70.7224 4 80 14 37
1982309N11064 1982 98 NI AS NOT_NAMED 1982-11-08 12:00:00 NR 21.2521 71.1856 main 0 0 O_________P___ jtwc_io IO051982 21.2000 71.2000 80 1 21.3042 71.1713 4 80 13 40
1982309N11064 1982 98 NI AS NOT_NAMED 1982-11-08 14:00:00 NR 21.5714 71.5073 main 0 0 P_________O___ IO051982 21.5428 71.5146 76 1 21.6000 71.5000 4 80 13 45
1982309N11064 1982 98 NI AS NOT_NAMED 1982-11-08 15:00:00 NR 21.7147 71.6761 main 0 0 P_________P___ IO051982 21.7023 71.6776 75 1 21.7272 71.6747 4 76 12 54
1982309N11064 1982 98 NI AS NOT_NAMED 1982-11-08 18:00:00 NR 22.0616 72.2205 main 0 0 O_________P___ jtwc_io IO051982 22.1000 72.2000 70 1 22.0328 72.2359 4 66 12 62
1982309N11064 1982 98 NI AS NOT_NAMED 1982-11-08 21:00:00 NR 22.2878 72.8171 main 0 0 P_________P___ IO051982 22.3455 72.7824 60 0 22.2493 72.8402 4 56 12 72
1982309N11064 1982 98 NI AS NOT_NAMED 1982-11-09 00:00:00 NR 22.4394 73.4478 main 0 0 O_________P___ jtwc_io IO051982 22.5000 73.4000 50 0 22.4090 73.4717 4 46 12 78
1982309N11064 1982 98 NI AS NOT_NAMED 1982-11-09 02:00:00 NR 22.5000 73.9000 main 0 __________O___ IO051982 -1 22.5000 73.9000 6 40 13 82

About IBTrACS Database

This database is a web-friendly format of International Best Track Archive for Climate Stewardship (IBTrACS), a global best track data archive curated by NOAA dating back to 1842.

Updated: 2021-11-26